createdAt,value
2017-09-16T00:00:21.222Z,0
2017-09-16T00:01:01.666Z,0
2017-09-16T00:01:42.112Z,0
2017-09-16T00:02:22.552Z,0
2017-09-16T00:03:03.002Z,0
2017-09-16T00:03:43.446Z,0
2017-09-16T00:04:23.894Z,0
2017-09-16T00:05:04.335Z,0
2017-09-16T00:05:44.792Z,0
2017-09-16T00:06:25.241Z,0
2017-09-16T00:07:05.684Z,0
2017-09-16T00:07:46.136Z,0
2017-09-16T00:08:26.584Z,0
2017-09-16T00:09:07.033Z,0
2017-09-16T00:09:47.488Z,0
2017-09-16T00:10:27.936Z,0
2017-09-16T00:11:08.383Z,0
2017-09-16T00:11:48.830Z,0
2017-09-16T00:12:29.277Z,0
2017-09-16T00:13:09.724Z,0
2017-09-16T00:13:50.165Z,0
2017-09-16T00:14:30.612Z,0
2017-09-16T00:15:11.062Z,0
2017-09-16T00:15:51.504Z,0
2017-09-16T00:16:31.952Z,0
2017-09-16T00:17:12.400Z,0
2017-09-16T00:17:52.849Z,0
2017-09-16T00:18:33.295Z,0
2017-09-16T00:19:13.745Z,0
2017-09-16T00:19:54.189Z,0
2017-09-16T00:20:34.637Z,0
2017-09-16T00:21:15.086Z,0
2017-09-16T00:21:55.539Z,0
2017-09-16T00:22:35.983Z,0
2017-09-16T00:23:16.438Z,0
2017-09-16T00:23:56.887Z,0
2017-09-16T00:24:37.347Z,0
2017-09-16T00:25:17.790Z,0
2017-09-16T00:25:58.244Z,0
2017-09-16T00:26:38.693Z,0
2017-09-16T00:27:19.140Z,0
2017-09-16T00:27:59.587Z,0
2017-09-16T00:28:40.035Z,0
2017-09-16T00:29:20.479Z,0
2017-09-16T00:30:00.928Z,0
2017-09-16T00:30:41.377Z,0
2017-09-16T00:31:21.825Z,0
2017-09-16T00:32:02.278Z,0
2017-09-16T00:32:42.725Z,0
2017-09-16T00:33:23.175Z,0
2017-09-16T00:34:03.627Z,0
2017-09-16T00:34:44.078Z,0
2017-09-16T00:35:24.532Z,0
2017-09-16T00:36:04.981Z,0
2017-09-16T00:36:45.426Z,0
2017-09-16T00:37:25.872Z,0
2017-09-16T00:38:06.316Z,0
2017-09-16T00:38:46.763Z,0
2017-09-16T00:39:27.211Z,0
2017-09-16T00:40:07.659Z,0
2017-09-16T00:40:48.107Z,0
2017-09-16T00:41:28.556Z,0
2017-09-16T00:42:09.004Z,0
2017-09-16T00:42:49.448Z,0
2017-09-16T00:43:29.887Z,0
2017-09-16T00:44:10.331Z,0
2017-09-16T00:44:50.769Z,0
2017-09-16T00:45:31.222Z,0
2017-09-16T00:46:11.669Z,0
2017-09-16T00:46:52.124Z,0
2017-09-16T00:47:32.570Z,0
2017-09-16T00:48:13.014Z,0
2017-09-16T00:48:53.464Z,0
2017-09-16T00:49:33.916Z,0
2017-09-16T00:50:14.355Z,0
2017-09-16T00:50:54.801Z,0
2017-09-16T00:51:35.252Z,0
2017-09-16T00:52:15.690Z,0
2017-09-16T00:52:56.143Z,0
2017-09-16T00:53:36.595Z,0
2017-09-16T00:54:17.041Z,0
2017-09-16T00:54:57.487Z,0
2017-09-16T00:55:37.942Z,0
2017-09-16T00:56:18.390Z,0
2017-09-16T00:56:58.873Z,0
2017-09-16T00:57:39.321Z,0
2017-09-16T00:58:19.765Z,0
2017-09-16T00:59:00.191Z,0
2017-09-16T00:59:40.645Z,0
2017-09-16T01:00:21.091Z,0
2017-09-16T01:01:01.536Z,0
2017-09-16T01:01:41.983Z,0
2017-09-16T01:02:22.436Z,0
2017-09-16T01:03:02.887Z,0
2017-09-16T01:03:43.336Z,0
2017-09-16T01:04:23.783Z,0
2017-09-16T01:05:04.229Z,0
2017-09-16T01:05:44.682Z,0
2017-09-16T01:06:25.125Z,0
2017-09-16T01:07:05.577Z,0
2017-09-16T01:07:46.022Z,0
2017-09-16T01:08:26.477Z,0
2017-09-16T01:09:06.929Z,0
2017-09-16T01:09:47.373Z,0
2017-09-16T01:10:27.826Z,0
2017-09-16T01:11:08.285Z,0
2017-09-16T01:11:48.723Z,0
2017-09-16T01:12:29.177Z,0
2017-09-16T01:13:09.630Z,0
2017-09-16T01:13:50.098Z,0
2017-09-16T01:14:30.537Z,0
2017-09-16T01:15:10.984Z,0
2017-09-16T01:15:51.429Z,0
2017-09-16T01:16:31.872Z,0
2017-09-16T01:17:12.317Z,0
2017-09-16T01:17:52.769Z,0
2017-09-16T01:18:33.216Z,0
2017-09-16T01:19:13.655Z,0
2017-09-16T01:19:54.098Z,0
2017-09-16T01:20:34.548Z,0
2017-09-16T01:21:14.983Z,0
2017-09-16T01:21:55.427Z,0
2017-09-16T01:22:35.878Z,0
2017-09-16T01:23:16.331Z,0
2017-09-16T01:23:56.781Z,0
2017-09-16T01:24:37.233Z,0
2017-09-16T01:25:17.684Z,0
2017-09-16T01:25:58.132Z,0
2017-09-16T01:26:38.581Z,0
2017-09-16T01:27:19.026Z,0
2017-09-16T01:27:59.478Z,0
2017-09-16T01:28:39.947Z,0
2017-09-16T01:29:20.389Z,0
2017-09-16T01:30:00.836Z,0
2017-09-16T01:30:41.285Z,0
2017-09-16T01:31:21.734Z,0
2017-09-16T01:32:02.182Z,0
2017-09-16T01:32:42.632Z,0
2017-09-16T01:33:23.087Z,0
2017-09-16T01:34:03.542Z,0
2017-09-16T01:34:43.995Z,0
2017-09-16T01:35:24.437Z,0
2017-09-16T01:36:04.885Z,0
2017-09-16T01:36:45.338Z,0
2017-09-16T01:37:25.772Z,0
2017-09-16T01:38:06.217Z,0
2017-09-16T01:38:46.665Z,0
2017-09-16T01:39:27.117Z,0
2017-09-16T01:40:07.562Z,0
2017-09-16T01:40:48.012Z,0
2017-09-16T01:41:28.429Z,0
2017-09-16T01:42:08.872Z,0
2017-09-16T01:42:49.320Z,0
2017-09-16T01:43:29.773Z,0
2017-09-16T01:44:10.215Z,0
2017-09-16T01:44:50.667Z,0
2017-09-16T01:45:31.116Z,0
2017-09-16T01:46:11.566Z,0
2017-09-16T01:46:52.012Z,0
2017-09-16T01:47:32.462Z,0
2017-09-16T01:48:12.909Z,0
2017-09-16T01:48:53.354Z,0
2017-09-16T01:49:33.808Z,0
2017-09-16T01:50:14.259Z,0
2017-09-16T01:50:54.714Z,0
2017-09-16T01:51:35.152Z,0
2017-09-16T01:52:15.598Z,0
2017-09-16T01:52:56.084Z,0
2017-09-16T01:53:36.497Z,0
2017-09-16T01:54:16.942Z,0
2017-09-16T01:54:57.390Z,0
2017-09-16T01:55:37.843Z,0
2017-09-16T01:56:18.300Z,0
2017-09-16T01:56:58.746Z,0
2017-09-16T01:57:39.199Z,0
2017-09-16T01:58:19.649Z,0
2017-09-16T01:59:00.106Z,0
2017-09-16T01:59:40.555Z,0
2017-09-16T02:00:21.002Z,0
2017-09-16T02:01:01.450Z,0
2017-09-16T02:01:41.900Z,0
2017-09-16T02:02:22.347Z,0
2017-09-16T02:03:02.795Z,0
2017-09-16T02:03:43.244Z,0
2017-09-16T02:04:23.695Z,0
2017-09-16T02:05:04.141Z,0
2017-09-16T02:05:44.591Z,0
2017-09-16T02:06:25.038Z,0
2017-09-16T02:07:05.486Z,0
2017-09-16T02:07:45.939Z,0
2017-09-16T02:08:26.391Z,0
2017-09-16T02:09:06.835Z,0
2017-09-16T02:09:47.291Z,0
2017-09-16T02:10:27.739Z,0
2017-09-16T02:11:08.190Z,0
2017-09-16T02:11:48.638Z,0
2017-09-16T02:12:29.087Z,0
2017-09-16T02:13:09.535Z,0
2017-09-16T02:13:49.985Z,0
2017-09-16T02:14:30.439Z,0
2017-09-16T02:15:10.888Z,0
2017-09-16T02:15:51.341Z,0
2017-09-16T02:16:31.785Z,0
2017-09-16T02:17:12.233Z,0
2017-09-16T02:17:52.684Z,0
2017-09-16T02:18:33.129Z,0
2017-09-16T02:19:13.587Z,0
2017-09-16T02:19:54.034Z,0
2017-09-16T02:20:34.482Z,0
2017-09-16T02:21:14.934Z,0
2017-09-16T02:21:55.375Z,0
2017-09-16T02:22:35.830Z,0
2017-09-16T02:23:16.294Z,0
2017-09-16T02:23:56.726Z,0
2017-09-16T02:24:37.176Z,0
2017-09-16T02:25:17.621Z,0
2017-09-16T02:25:58.074Z,0
2017-09-16T02:26:38.539Z,0
2017-09-16T02:27:18.994Z,0
2017-09-16T02:27:59.446Z,0
2017-09-16T02:28:39.893Z,0
2017-09-16T02:29:20.345Z,0
2017-09-16T02:30:00.797Z,0
2017-09-16T02:30:41.244Z,0
2017-09-16T02:31:21.686Z,0
2017-09-16T02:32:02.135Z,0
2017-09-16T02:32:42.582Z,0
2017-09-16T02:33:23.038Z,0
2017-09-16T02:34:03.484Z,0
2017-09-16T02:34:43.935Z,0
2017-09-16T02:35:24.394Z,0
2017-09-16T02:36:04.841Z,0
2017-09-16T02:36:45.299Z,0
2017-09-16T02:37:25.754Z,0
2017-09-16T02:38:06.202Z,0
2017-09-16T02:38:46.647Z,0
2017-09-16T02:39:27.098Z,0
2017-09-16T02:40:07.556Z,0
2017-09-16T02:40:48.000Z,0
2017-09-16T02:41:28.444Z,0
2017-09-16T02:42:08.888Z,0
2017-09-16T02:42:49.335Z,0
2017-09-16T02:43:29.789Z,0
2017-09-16T02:44:10.234Z,0
2017-09-16T02:44:50.689Z,0
2017-09-16T02:45:31.138Z,0
2017-09-16T02:46:11.587Z,0
2017-09-16T02:46:52.036Z,0
2017-09-16T02:47:32.482Z,0
2017-09-16T02:48:12.924Z,0
2017-09-16T02:48:53.377Z,0
2017-09-16T02:49:33.825Z,0
2017-09-16T02:50:14.278Z,0
2017-09-16T02:50:54.727Z,0
2017-09-16T02:51:35.174Z,0
2017-09-16T02:52:15.616Z,0
2017-09-16T02:52:56.064Z,0
2017-09-16T02:53:36.512Z,0
2017-09-16T02:54:16.948Z,0
2017-09-16T02:54:57.393Z,0
2017-09-16T02:55:37.845Z,0
2017-09-16T02:56:18.289Z,0
2017-09-16T02:56:58.737Z,0
2017-09-16T02:57:39.184Z,0
2017-09-16T02:58:19.636Z,0
2017-09-16T02:59:00.091Z,0
2017-09-16T02:59:40.538Z,0
2017-09-16T03:00:20.987Z,0
2017-09-16T03:01:01.436Z,0
2017-09-16T03:01:41.884Z,0
2017-09-16T03:02:22.337Z,0
2017-09-16T03:03:02.788Z,0
2017-09-16T03:03:43.235Z,0
2017-09-16T03:04:23.689Z,0
2017-09-16T03:05:04.135Z,0
2017-09-16T03:05:44.588Z,0
2017-09-16T03:06:25.038Z,0
2017-09-16T03:07:05.487Z,0
2017-09-16T03:07:45.938Z,0
2017-09-16T03:08:26.401Z,0
2017-09-16T03:09:06.850Z,0
2017-09-16T03:09:47.304Z,0
2017-09-16T03:10:27.748Z,0
2017-09-16T03:11:08.202Z,0
2017-09-16T03:11:48.649Z,0
2017-09-16T03:12:29.101Z,0
2017-09-16T03:13:09.550Z,0
2017-09-16T03:13:50.009Z,0
2017-09-16T03:14:30.457Z,0
2017-09-16T03:15:10.910Z,0
2017-09-16T03:15:51.363Z,0
2017-09-16T03:16:31.813Z,0
2017-09-16T03:17:12.262Z,0
2017-09-16T03:17:52.711Z,0
2017-09-16T03:18:33.160Z,0
2017-09-16T03:19:13.614Z,0
2017-09-16T03:19:54.062Z,0
2017-09-16T03:20:34.513Z,0
2017-09-16T03:21:14.960Z,0
2017-09-16T03:21:55.411Z,0
2017-09-16T03:22:35.864Z,0
2017-09-16T03:23:16.313Z,0
2017-09-16T03:23:56.770Z,0
2017-09-16T03:24:37.223Z,0
2017-09-16T03:25:17.671Z,0
2017-09-16T03:25:58.122Z,0
2017-09-16T03:26:38.570Z,0
2017-09-16T03:27:19.021Z,0
2017-09-16T03:27:59.470Z,0
2017-09-16T03:28:39.943Z,0
2017-09-16T03:29:20.370Z,0
2017-09-16T03:30:00.825Z,0
2017-09-16T03:30:41.278Z,0
2017-09-16T03:31:21.735Z,0
2017-09-16T03:32:02.185Z,0
2017-09-16T03:32:42.629Z,0
2017-09-16T03:33:23.085Z,0
2017-09-16T03:34:03.546Z,0
2017-09-16T03:34:43.980Z,0
2017-09-16T03:35:24.427Z,0
2017-09-16T03:36:04.877Z,0
2017-09-16T03:36:45.328Z,0
2017-09-16T03:37:25.779Z,0
2017-09-16T03:38:06.227Z,0
2017-09-16T03:38:46.690Z,0
2017-09-16T03:39:27.132Z,0
2017-09-16T03:40:07.579Z,0
2017-09-16T03:40:48.027Z,0
2017-09-16T03:41:28.476Z,0
2017-09-16T03:42:08.933Z,0
2017-09-16T03:42:49.377Z,0
2017-09-16T03:43:29.822Z,0
2017-09-16T03:44:10.280Z,0
2017-09-16T03:44:50.728Z,0
2017-09-16T03:45:31.184Z,0
2017-09-16T03:46:11.633Z,0
2017-09-16T03:46:52.081Z,0
2017-09-16T03:47:32.529Z,0
2017-09-16T03:48:12.976Z,0
2017-09-16T03:48:53.425Z,0
2017-09-16T03:49:33.874Z,0
2017-09-16T03:50:14.321Z,0
2017-09-16T03:50:54.771Z,0
2017-09-16T03:51:35.212Z,0
2017-09-16T03:52:15.669Z,0
2017-09-16T03:52:56.116Z,0
2017-09-16T03:53:36.556Z,0
2017-09-16T03:54:17.005Z,0
2017-09-16T03:54:57.451Z,0
2017-09-16T03:55:37.902Z,0
2017-09-16T03:56:18.356Z,0
2017-09-16T03:56:58.800Z,0
2017-09-16T03:57:39.244Z,0
2017-09-16T03:58:19.691Z,0
2017-09-16T03:59:00.141Z,0
2017-09-16T03:59:40.592Z,0
2017-09-16T04:00:21.041Z,0
2017-09-16T04:01:01.493Z,0
2017-09-16T04:01:41.939Z,0
2017-09-16T04:02:22.382Z,0
2017-09-16T04:03:02.837Z,0
2017-09-16T04:03:43.283Z,0
2017-09-16T04:04:23.726Z,0
2017-09-16T04:05:04.188Z,0
2017-09-16T04:05:44.637Z,0
2017-09-16T04:06:25.090Z,0
2017-09-16T04:07:05.535Z,0
2017-09-16T04:07:45.982Z,0
2017-09-16T04:08:26.430Z,0
2017-09-16T04:09:06.877Z,0
2017-09-16T04:09:47.325Z,0
2017-09-16T04:10:27.762Z,0
2017-09-16T04:11:08.211Z,0
2017-09-16T04:11:48.654Z,0
2017-09-16T04:12:29.106Z,0
2017-09-16T04:13:09.551Z,0
2017-09-16T04:13:50.001Z,0
2017-09-16T04:14:30.452Z,0
2017-09-16T04:15:10.903Z,0
2017-09-16T04:15:51.350Z,0
2017-09-16T04:16:31.797Z,0
2017-09-16T04:17:12.252Z,0
2017-09-16T04:17:52.695Z,0
2017-09-16T04:18:33.147Z,0
2017-09-16T04:19:13.593Z,0
2017-09-16T04:19:54.041Z,0
2017-09-16T04:20:34.489Z,0
2017-09-16T04:21:14.931Z,0
2017-09-16T04:21:55.376Z,0
2017-09-16T04:22:35.828Z,0
2017-09-16T04:23:16.269Z,0
2017-09-16T04:23:56.717Z,0
2017-09-16T04:24:37.176Z,0
2017-09-16T04:25:17.622Z,0
2017-09-16T04:25:58.072Z,0
2017-09-16T04:26:38.517Z,0
2017-09-16T04:27:18.976Z,0
2017-09-16T04:27:59.441Z,0
2017-09-16T04:28:39.889Z,0
2017-09-16T04:29:20.336Z,0
2017-09-16T04:30:00.776Z,0
2017-09-16T04:30:41.232Z,0
2017-09-16T04:31:21.680Z,0
2017-09-16T04:32:02.132Z,0
2017-09-16T04:32:42.596Z,0
2017-09-16T04:33:23.045Z,0
2017-09-16T04:34:03.493Z,0
2017-09-16T04:34:43.945Z,0
2017-09-16T04:35:24.386Z,0
2017-09-16T04:36:04.832Z,0
2017-09-16T04:36:45.283Z,0
2017-09-16T04:37:25.729Z,0
2017-09-16T04:38:06.174Z,0
2017-09-16T04:38:46.625Z,0
2017-09-16T04:39:27.087Z,0
2017-09-16T04:40:07.535Z,0
2017-09-16T04:40:47.986Z,0
2017-09-16T04:41:28.431Z,0
2017-09-16T04:42:08.883Z,0
2017-09-16T04:42:49.329Z,0
2017-09-16T04:43:29.774Z,0
2017-09-16T04:44:10.221Z,0
2017-09-16T04:44:50.653Z,0
2017-09-16T04:45:31.105Z,0
2017-09-16T04:46:11.560Z,0
2017-09-16T04:46:52.009Z,0
2017-09-16T04:47:32.449Z,0
2017-09-16T04:48:12.904Z,0
2017-09-16T04:48:53.354Z,0
2017-09-16T04:49:33.808Z,0
2017-09-16T04:50:14.258Z,0
2017-09-16T04:50:54.702Z,0
2017-09-16T04:51:35.155Z,0
2017-09-16T04:52:15.606Z,0
2017-09-16T04:52:56.065Z,0
2017-09-16T04:53:36.522Z,0
2017-09-16T04:54:16.961Z,0
2017-09-16T04:54:57.422Z,0
2017-09-16T04:55:37.870Z,0
2017-09-16T04:56:18.323Z,0
2017-09-16T04:56:58.768Z,0
2017-09-16T04:57:39.223Z,0
2017-09-16T04:58:19.675Z,0
2017-09-16T04:59:00.126Z,0
2017-09-16T04:59:40.580Z,0
2017-09-16T05:00:21.162Z,0
2017-09-16T05:01:01.606Z,0
2017-09-16T05:01:42.052Z,0
2017-09-16T05:02:22.502Z,0
2017-09-16T05:03:02.956Z,0
2017-09-16T05:03:43.417Z,0
2017-09-16T05:04:23.869Z,0
2017-09-16T05:05:04.318Z,0
2017-09-16T05:05:44.774Z,0
2017-09-16T05:06:25.223Z,0
2017-09-16T05:07:05.671Z,0
2017-09-16T05:07:46.124Z,0
2017-09-16T05:08:26.577Z,0
2017-09-16T05:09:07.046Z,0
2017-09-16T05:09:47.500Z,0
2017-09-16T05:10:27.951Z,0
2017-09-16T05:11:08.399Z,0
2017-09-16T05:11:48.846Z,0
2017-09-16T05:12:29.293Z,0
2017-09-16T05:13:09.743Z,0
2017-09-16T05:13:50.193Z,0
2017-09-16T05:14:30.649Z,0
2017-09-16T05:15:11.097Z,0
2017-09-16T05:15:51.548Z,0
2017-09-16T05:16:31.997Z,0
2017-09-16T05:17:12.441Z,0
2017-09-16T05:17:52.888Z,0
2017-09-16T05:18:33.336Z,0
2017-09-16T05:19:13.771Z,0
2017-09-16T05:19:54.532Z,0
2017-09-16T05:20:34.979Z,0
2017-09-16T05:21:15.434Z,0
2017-09-16T05:21:55.884Z,0
2017-09-16T05:22:36.337Z,0
2017-09-16T05:23:16.787Z,0
2017-09-16T05:23:57.234Z,0
2017-09-16T05:24:37.685Z,0
2017-09-16T05:25:18.132Z,0
2017-09-16T05:25:58.581Z,0
2017-09-16T05:26:39.027Z,0
2017-09-16T05:27:19.469Z,0
2017-09-16T05:27:59.917Z,0
2017-09-16T05:28:40.359Z,0
2017-09-16T05:29:20.821Z,0
2017-09-16T05:30:01.269Z,0
2017-09-16T05:30:41.835Z,0
2017-09-16T05:31:22.143Z,0
2017-09-16T05:32:02.709Z,0
2017-09-16T05:32:43.032Z,0
2017-09-16T05:33:23.482Z,0
2017-09-16T05:34:03.958Z,0
2017-09-16T05:34:44.392Z,0
2017-09-16T05:35:24.848Z,0
2017-09-16T05:36:05.279Z,0
2017-09-16T05:36:45.729Z,0
2017-09-16T05:37:26.184Z,0
2017-09-16T05:38:06.628Z,0
2017-09-16T05:38:47.084Z,0
2017-09-16T05:39:27.530Z,0
2017-09-16T05:40:07.981Z,0
2017-09-16T05:40:48.448Z,0
2017-09-16T05:41:28.852Z,0
2017-09-16T05:42:09.316Z,0
2017-09-16T05:42:49.762Z,0
2017-09-16T05:43:30.208Z,0
2017-09-16T05:44:10.655Z,0
2017-09-16T05:44:51.108Z,0
2017-09-16T05:45:31.553Z,0
2017-09-16T05:46:11.996Z,0
2017-09-16T05:46:52.439Z,0
2017-09-16T05:47:32.889Z,0
2017-09-16T05:48:13.331Z,0
2017-09-16T05:48:53.943Z,0
2017-09-16T05:49:34.390Z,0
2017-09-16T05:52:02.507Z,0
2017-09-16T05:52:42.962Z,0
2017-09-16T05:53:23.413Z,0
2017-09-16T05:54:03.838Z,0
2017-09-16T05:54:44.291Z,0
2017-09-16T05:55:24.763Z,0
2017-09-16T05:56:05.206Z,0
2017-09-16T05:56:45.652Z,0
2017-09-16T05:57:26.118Z,0
2017-09-16T05:58:06.565Z,0
2017-09-16T05:58:47.014Z,0
2017-09-16T05:59:27.511Z,0
2017-09-16T06:00:07.962Z,0
2017-09-16T06:00:48.418Z,0
2017-09-16T06:01:28.902Z,0
2017-09-16T06:02:09.340Z,0
2017-09-16T06:02:49.789Z,0
2017-09-16T06:03:30.218Z,0
2017-09-16T06:04:10.650Z,0
2017-09-16T06:04:51.085Z,0
2017-09-16T06:05:31.531Z,0
2017-09-16T06:06:11.981Z,0
2017-09-16T06:06:52.424Z,0
2017-09-16T06:07:32.867Z,0
2017-09-16T06:08:13.321Z,0
2017-09-16T06:08:53.771Z,0
2017-09-16T06:09:34.241Z,0
2017-09-16T06:10:14.668Z,0
2017-09-16T06:10:55.117Z,0
2017-09-16T06:11:35.584Z,0
2017-09-16T06:12:16.033Z,0
2017-09-16T06:12:56.478Z,0
2017-09-16T06:13:36.911Z,0
2017-09-16T06:14:17.353Z,0
2017-09-16T06:14:57.798Z,0
2017-09-16T06:15:38.242Z,0
2017-09-16T06:16:18.685Z,0
2017-09-16T06:16:59.121Z,0
2017-09-16T06:17:39.569Z,0
2017-09-16T06:18:20.040Z,0
2017-09-16T06:19:00.515Z,0
2017-09-16T06:19:40.978Z,0
2017-09-16T06:20:21.587Z,0
2017-09-16T06:21:02.076Z,0
2017-09-16T06:21:42.497Z,0
2017-09-16T06:22:22.930Z,0
2017-09-16T06:23:03.385Z,0
2017-09-16T06:23:43.824Z,0
2017-09-16T06:24:24.259Z,0
2017-09-16T06:25:04.709Z,0
2017-09-16T06:25:45.157Z,0
2017-09-16T06:26:25.608Z,0
2017-09-16T06:27:06.071Z,0
2017-09-16T06:27:46.507Z,0
2017-09-16T06:28:26.951Z,0
2017-09-16T06:29:07.397Z,0
2017-09-16T06:29:47.840Z,0
2017-09-16T06:30:28.285Z,0
2017-09-16T06:31:08.734Z,0
2017-09-16T06:31:49.288Z,0
2017-09-16T06:32:29.613Z,0
2017-09-16T06:33:10.039Z,0
2017-09-16T06:33:50.549Z,0
2017-09-16T06:36:08.416Z,0
2017-09-16T06:36:48.871Z,0
2017-09-16T06:37:29.318Z,0
2017-09-16T06:38:09.744Z,0
2017-09-16T06:38:50.182Z,0
2017-09-16T06:39:30.616Z,0
2017-09-16T06:40:11.070Z,0
2017-09-16T06:40:51.538Z,0
2017-09-16T06:41:31.911Z,0
2017-09-16T06:42:12.291Z,0
2017-09-16T06:42:52.688Z,0
2017-09-16T06:43:33.115Z,0
2017-09-16T06:44:13.539Z,0
2017-09-16T06:44:53.977Z,0
2017-09-16T06:45:34.409Z,0
2017-09-16T06:46:14.871Z,0
2017-09-16T06:46:55.360Z,0
2017-09-16T06:47:35.772Z,0
2017-09-16T06:48:16.210Z,0
2017-09-16T06:48:56.683Z,0
2017-09-16T06:51:09.469Z,0
2017-09-16T06:51:49.929Z,0
2017-09-16T06:52:30.352Z,0
2017-09-16T06:53:10.803Z,0
2017-09-16T06:53:51.246Z,0
2017-09-16T06:54:31.688Z,0
2017-09-16T06:55:12.137Z,0
2017-09-16T06:55:52.593Z,0
2017-09-16T06:56:33.030Z,0
2017-09-16T06:57:13.476Z,0
2017-09-16T06:57:53.922Z,0
2017-09-16T06:58:34.363Z,0
2017-09-16T06:59:14.826Z,0
2017-09-16T06:59:55.267Z,0
2017-09-16T07:00:35.703Z,0
2017-09-16T07:01:16.148Z,0
2017-09-16T07:01:56.633Z,0
2017-09-16T07:02:37.073Z,0
2017-09-16T07:03:17.525Z,0
2017-09-16T07:03:57.987Z,0
2017-09-16T07:04:38.431Z,0
2017-09-16T07:05:18.888Z,0
2017-09-16T07:05:59.336Z,0
2017-09-16T07:06:39.781Z,0
2017-09-16T07:07:20.230Z,0
2017-09-16T07:08:00.682Z,0
2017-09-16T07:08:41.130Z,0
2017-09-16T07:09:21.580Z,0
2017-09-16T07:10:02.028Z,0
2017-09-16T07:10:42.496Z,0
2017-09-16T07:11:22.924Z,0
2017-09-16T07:12:03.368Z,0
2017-09-16T07:12:43.828Z,0
2017-09-16T07:13:24.291Z,0
2017-09-16T07:14:04.737Z,0
2017-09-16T07:14:45.185Z,0
2017-09-16T07:15:25.638Z,0
2017-09-16T07:16:06.082Z,0
2017-09-16T07:16:46.528Z,0
2017-09-16T07:19:19.518Z,0
2017-09-16T07:19:59.971Z,0
2017-09-16T07:20:40.419Z,0
2017-09-16T07:21:20.858Z,0
2017-09-16T07:22:01.307Z,0
2017-09-16T07:22:41.773Z,0
2017-09-16T07:23:22.224Z,0
2017-09-16T07:24:02.682Z,0
2017-09-16T07:24:43.131Z,0
2017-09-16T07:25:23.580Z,0
2017-09-16T07:26:04.020Z,0
2017-09-16T07:26:44.469Z,0
2017-09-16T07:27:24.922Z,0
2017-09-16T07:28:05.362Z,0
2017-09-16T07:28:45.820Z,0
2017-09-16T07:29:26.257Z,0
2017-09-16T07:30:06.697Z,0
2017-09-16T07:30:47.140Z,0
2017-09-16T07:31:27.604Z,0
2017-09-16T07:32:08.048Z,0
2017-09-16T07:32:48.494Z,0
2017-09-16T07:33:28.936Z,0
2017-09-16T07:34:09.386Z,0
2017-09-16T07:34:49.836Z,0
2017-09-16T07:35:30.285Z,0
2017-09-16T07:36:10.737Z,0
2017-09-16T07:36:51.188Z,0
2017-09-16T07:37:31.665Z,95
2017-09-16T07:38:12.101Z,105
2017-09-16T07:38:52.548Z,130
2017-09-16T07:39:33.004Z,150
2017-09-16T07:40:13.449Z,150
2017-09-16T07:40:53.890Z,150
2017-09-16T07:41:34.337Z,150
2017-09-16T07:42:14.934Z,150
2017-09-16T07:42:55.374Z,150
2017-09-16T07:43:35.819Z,110
2017-09-16T07:44:16.257Z,110
2017-09-16T07:44:56.703Z,110
2017-09-16T07:45:37.147Z,110
2017-09-16T07:46:17.595Z,110
2017-09-16T07:46:58.049Z,110
2017-09-16T07:47:38.488Z,110
2017-09-16T07:48:18.937Z,115
2017-09-16T07:48:59.383Z,115
2017-09-16T07:49:39.835Z,115
2017-09-16T07:50:20.290Z,115
2017-09-16T07:51:00.722Z,115
2017-09-16T07:51:41.546Z,115
2017-09-16T07:52:22.082Z,115
2017-09-16T07:53:02.506Z,115
2017-09-16T07:53:42.922Z,120
2017-09-16T07:54:23.353Z,120
2017-09-16T07:55:03.806Z,120
2017-09-16T07:55:44.256Z,120
2017-09-16T07:56:24.704Z,120
2017-09-16T07:57:05.153Z,120
2017-09-16T07:57:45.601Z,120
2017-09-16T07:58:26.062Z,120
2017-09-16T07:59:06.506Z,120
2017-09-16T07:59:46.945Z,125
2017-09-16T08:00:27.394Z,105
2017-09-16T08:01:07.839Z,125
2017-09-16T08:01:48.285Z,125
2017-09-16T08:02:28.736Z,125
2017-09-16T08:03:09.187Z,125
2017-09-16T08:03:49.631Z,125
2017-09-16T08:04:30.071Z,125
2017-09-16T08:05:10.514Z,125
2017-09-16T08:05:50.953Z,130
2017-09-16T08:06:31.397Z,130
2017-09-16T08:07:11.843Z,130
2017-09-16T08:07:52.294Z,130
2017-09-16T08:08:32.737Z,130
2017-09-16T08:09:13.180Z,130
2017-09-16T08:09:53.624Z,130
2017-09-16T08:10:34.074Z,130
2017-09-16T08:11:14.518Z,130
2017-09-16T08:11:54.974Z,135
2017-09-16T08:12:35.418Z,135
2017-09-16T08:13:15.860Z,135
2017-09-16T08:13:56.306Z,135
2017-09-16T08:14:36.753Z,135
2017-09-16T08:15:17.205Z,135
2017-09-16T08:15:57.648Z,135
2017-09-16T08:16:38.095Z,135
2017-09-16T08:17:18.542Z,135
2017-09-16T08:17:58.994Z,140
2017-09-16T08:18:39.439Z,140
2017-09-16T08:19:19.884Z,140
2017-09-16T08:20:00.315Z,140
2017-09-16T08:20:40.756Z,140
2017-09-16T08:21:21.206Z,140
2017-09-16T08:22:01.649Z,140
2017-09-16T08:22:42.105Z,140
2017-09-16T08:23:22.555Z,140
2017-09-16T08:24:03.003Z,145
2017-09-16T08:24:43.451Z,145
2017-09-16T08:25:23.902Z,145
2017-09-16T08:26:04.318Z,145
2017-09-16T08:26:44.768Z,145
2017-09-16T08:27:25.242Z,145
2017-09-16T08:28:05.676Z,145
2017-09-16T08:28:46.174Z,145
2017-09-16T08:29:26.598Z,145
2017-09-16T08:30:07.035Z,145
2017-09-16T08:30:47.483Z,145
2017-09-16T08:31:27.932Z,145
2017-09-16T08:32:08.381Z,150
2017-09-16T08:32:48.838Z,150
2017-09-16T08:33:29.286Z,150
2017-09-16T08:34:09.725Z,150
2017-09-16T08:34:50.172Z,150
2017-09-16T08:35:30.622Z,150
2017-09-16T08:36:11.073Z,150
2017-09-16T08:36:51.523Z,150
2017-09-16T08:37:31.970Z,150
2017-09-16T08:38:12.426Z,150
2017-09-16T08:38:52.875Z,150
2017-09-16T08:39:33.322Z,155
2017-09-16T08:40:13.768Z,155
2017-09-16T08:40:54.215Z,155
2017-09-16T08:41:34.668Z,155
2017-09-16T08:42:15.100Z,155
2017-09-16T08:42:55.547Z,155
2017-09-16T08:43:36.278Z,155
2017-09-16T08:44:16.793Z,155
2017-09-16T08:46:54.948Z,155
2017-09-16T08:47:35.396Z,160
2017-09-16T08:48:15.836Z,155
2017-09-16T08:48:56.285Z,160
2017-09-16T08:49:36.735Z,160
2017-09-16T08:50:17.184Z,160
2017-09-16T08:50:57.645Z,160
2017-09-16T08:51:38.094Z,160
2017-09-16T08:52:18.538Z,160
2017-09-16T08:52:59.003Z,160
2017-09-16T08:53:39.451Z,160
2017-09-16T08:54:19.900Z,160
2017-09-16T08:55:00.362Z,160
2017-09-16T08:55:40.797Z,160
2017-09-16T08:56:21.253Z,160
2017-09-16T08:57:01.688Z,160
2017-09-16T08:57:42.136Z,160
2017-09-16T08:58:22.577Z,160
2017-09-16T08:59:03.018Z,160
2017-09-16T08:59:43.469Z,160
2017-09-16T09:00:23.899Z,160
2017-09-16T09:01:04.345Z,160
2017-09-16T09:01:44.815Z,160
2017-09-16T09:02:25.244Z,160
2017-09-16T09:03:05.710Z,160
2017-09-16T09:03:46.162Z,160
2017-09-16T09:04:26.606Z,160
2017-09-16T09:05:07.056Z,155
2017-09-16T09:05:47.503Z,155
2017-09-16T09:06:27.947Z,160
2017-09-16T09:07:08.410Z,165
2017-09-16T09:07:48.845Z,165
2017-09-16T09:08:29.298Z,165
2017-09-16T09:09:09.739Z,160
2017-09-16T09:09:50.194Z,160
2017-09-16T09:10:30.640Z,165
2017-09-16T09:11:11.098Z,170
2017-09-16T09:11:51.550Z,170
2017-09-16T09:12:32.003Z,170
2017-09-16T09:13:12.441Z,170
2017-09-16T09:13:52.888Z,170
2017-09-16T09:14:33.337Z,175
2017-09-16T09:15:13.786Z,165
2017-09-16T09:15:54.239Z,165
2017-09-16T09:16:34.669Z,150
2017-09-16T09:17:15.117Z,130
2017-09-16T09:17:55.590Z,130
2017-09-16T09:18:36.056Z,135
2017-09-16T09:19:16.502Z,120
2017-09-16T09:19:56.949Z,120
2017-09-16T09:20:37.408Z,135
2017-09-16T09:21:18.043Z,125
2017-09-16T09:21:58.298Z,125
2017-09-16T09:22:38.754Z,130
2017-09-16T09:23:19.210Z,120
2017-09-16T09:23:59.665Z,130
2017-09-16T09:24:40.119Z,125
2017-09-16T09:25:20.568Z,125
2017-09-16T09:26:01.051Z,140
2017-09-16T09:26:41.517Z,130
2017-09-16T09:27:21.890Z,145
2017-09-16T09:28:02.348Z,135
2017-09-16T09:28:42.790Z,140
2017-09-16T09:29:23.236Z,145
2017-09-16T09:32:01.390Z,155
2017-09-16T09:32:41.822Z,150
2017-09-16T09:33:22.236Z,150
2017-09-16T09:34:02.680Z,135
2017-09-16T09:34:43.138Z,145
2017-09-16T09:35:24.263Z,155
2017-09-16T09:36:05.150Z,150
2017-09-16T09:36:45.592Z,160
2017-09-16T09:37:26.013Z,170
2017-09-16T09:38:06.610Z,175
2017-09-16T09:38:46.986Z,160
2017-09-16T09:39:27.753Z,165
2017-09-16T09:40:08.496Z,160
2017-09-16T09:42:26.532Z,180
2017-09-16T09:43:06.983Z,175
2017-09-16T09:43:47.429Z,175
2017-09-16T09:44:27.885Z,180
2017-09-16T09:45:11.255Z,175
2017-09-16T09:45:51.712Z,180
2017-09-16T09:46:32.160Z,180
2017-09-16T09:47:12.611Z,180
2017-09-16T09:47:53.057Z,185
2017-09-16T09:48:33.490Z,45
2017-09-16T09:49:13.920Z,50
2017-09-16T09:51:26.703Z,190
2017-09-16T09:52:07.154Z,105
2017-09-16T09:52:47.587Z,190
2017-09-16T09:53:28.088Z,155
2017-09-16T09:54:08.476Z,185
2017-09-16T09:54:48.926Z,175
2017-09-16T09:55:29.361Z,50
2017-09-16T09:56:09.800Z,185
2017-09-16T09:56:50.245Z,160
2017-09-16T09:57:30.689Z,60
2017-09-16T09:58:11.142Z,185
2017-09-16T09:58:51.592Z,185
2017-09-16T09:59:32.029Z,185
2017-09-16T10:00:12.476Z,185
2017-09-16T10:00:52.914Z,190
2017-09-16T10:01:33.357Z,130
2017-09-16T10:02:13.805Z,60